sensor_id;sensor_type;location;lat;lon;timestamp;temperature;humidity
8858;DHT22;4465;50.904;4.696;2022-07-23T00:00:06;16.50;99.90
8858;DHT22;4465;50.904;4.696;2022-07-23T00:02:33;16.50;99.90
8858;DHT22;4465;50.904;4.696;2022-07-23T00:04:59;16.40;99.90
8858;DHT22;4465;50.904;4.696;2022-07-23T00:07:25;16.40;99.90
8858;DHT22;4465;50.904;4.696;2022-07-23T00:09:52;16.40;99.90
8858;DHT22;4465;50.904;4.696;2022-07-23T00:12:18;16.40;99.90
8858;DHT22;4465;50.904;4.696;2022-07-23T00:14:44;16.30;99.90
8858;DHT22;4465;50.904;4.696;2022-07-23T00:17:10;16.40;99.90
8858;DHT22;4465;50.904;4.696;2022-07-23T00:19:39;16.30;99.90
8858;DHT22;4465;50.904;4.696;2022-07-23T00:22:05;16.30;99.90
8858;DHT22;4465;50.904;4.696;2022-07-23T00:24:32;16.20;99.90
8858;DHT22;4465;50.904;4.696;2022-07-23T00:26:59;16.20;99.90
8858;DHT22;4465;50.904;4.696;2022-07-23T00:29:25;16.20;99.90
8858;DHT22;4465;50.904;4.696;2022-07-23T00:31:54;16.20;99.90
8858;DHT22;4465;50.904;4.696;2022-07-23T00:34:20;16.10;99.90
8858;DHT22;4465;50.904;4.696;2022-07-23T00:36:46;16.10;99.90
8858;DHT22;4465;50.904;4.696;2022-07-23T00:39:13;16.10;99.90
8858;DHT22;4465;50.904;4.696;2022-07-23T00:41:40;16.10;99.90
8858;DHT22;4465;50.904;4.696;2022-07-23T00:44:25;16.00;99.90
8858;DHT22;4465;50.904;4.696;2022-07-23T00:47:03;16.00;99.90
8858;DHT22;4465;50.904;4.696;2022-07-23T00:49:30;16.00;99.90
8858;DHT22;4465;50.904;4.696;2022-07-23T00:52:00;16.00;99.90
8858;DHT22;4465;50.904;4.696;2022-07-23T00:54:27;16.00;99.90
8858;DHT22;4465;50.904;4.696;2022-07-23T00:56:54;15.90;99.90
8858;DHT22;4465;50.904;4.696;2022-07-23T00:59:20;15.90;99.90
8858;DHT22;4465;50.904;4.696;2022-07-23T01:01:48;15.90;99.90
8858;DHT22;4465;50.904;4.696;2022-07-23T01:04:15;15.90;99.90
8858;DHT22;4465;50.904;4.696;2022-07-23T01:06:42;15.90;99.90
8858;DHT22;4465;50.904;4.696;2022-07-23T01:09:09;15.90;99.90
8858;DHT22;4465;50.904;4.696;2022-07-23T01:11:37;15.90;99.90
8858;DHT22;4465;50.904;4.696;2022-07-23T01:14:14;15.80;99.90
8858;DHT22;4465;50.904;4.696;2022-07-23T01:16:42;15.90;99.90
8858;DHT22;4465;50.904;4.696;2022-07-23T01:19:11;15.80;99.90
8858;DHT22;4465;50.904;4.696;2022-07-23T01:21:48;15.80;99.90
8858;DHT22;4465;50.904;4.696;2022-07-23T01:24:15;15.80;99.90
8858;DHT22;4465;50.904;4.696;2022-07-23T01:26:43;15.70;99.90
8858;DHT22;4465;50.904;4.696;2022-07-23T01:29:10;15.70;99.90
8858;DHT22;4465;50.904;4.696;2022-07-23T01:31:36;15.70;99.90
8858;DHT22;4465;50.904;4.696;2022-07-23T01:34:03;15.70;99.90
8858;DHT22;4465;50.904;4.696;2022-07-23T01:36:30;15.60;99.90
8858;DHT22;4465;50.904;4.696;2022-07-23T01:38:56;15.60;99.90
8858;DHT22;4465;50.904;4.696;2022-07-23T01:41:22;15.60;99.90
8858;DHT22;4465;50.904;4.696;2022-07-23T01:43:48;15.60;99.90
8858;DHT22;4465;50.904;4.696;2022-07-23T01:46:14;15.50;99.90
8858;DHT22;4465;50.904;4.696;2022-07-23T01:48:43;15.50;99.90
8858;DHT22;4465;50.904;4.696;2022-07-23T01:51:09;15.50;99.90
8858;DHT22;4465;50.904;4.696;2022-07-23T01:53:35;15.50;99.90
8858;DHT22;4465;50.904;4.696;2022-07-23T01:56:02;15.40;99.90
8858;DHT22;4465;50.904;4.696;2022-07-23T01:58:29;15.40;99.90
8858;DHT22;4465;50.904;4.696;2022-07-23T02:00:55;15.40;99.90
8858;DHT22;4465;50.904;4.696;2022-07-23T02:03:22;15.40;99.90
8858;DHT22;4465;50.904;4.696;2022-07-23T02:05:48;15.30;99.90
8858;DHT22;4465;50.904;4.696;2022-07-23T02:08:15;15.30;99.90
8858;DHT22;4465;50.904;4.696;2022-07-23T02:10:41;15.30;99.90
8858;DHT22;4465;50.904;4.696;2022-07-23T02:13:11;15.30;99.90
8858;DHT22;4465;50.904;4.696;2022-07-23T02:15:39;15.20;99.90
8858;DHT22;4465;50.904;4.696;2022-07-23T02:18:05;15.20;99.90
8858;DHT22;4465;50.904;4.696;2022-07-23T02:20:32;15.20;99.90
8858;DHT22;4465;50.904;4.696;2022-07-23T02:23:01;15.20;99.90
8858;DHT22;4465;50.904;4.696;2022-07-23T02:25:27;15.20;99.90
8858;DHT22;4465;50.904;4.696;2022-07-23T02:27:53;15.10;99.90
8858;DHT22;4465;50.904;4.696;2022-07-23T02:30:19;15.20;99.90
8858;DHT22;4465;50.904;4.696;2022-07-23T02:32:47;15.10;99.90
8858;DHT22;4465;50.904;4.696;2022-07-23T02:35:13;15.00;99.90
8858;DHT22;4465;50.904;4.696;2022-07-23T02:37:39;15.00;99.90
8858;DHT22;4465;50.904;4.696;2022-07-23T02:40:05;15.00;99.90
8858;DHT22;4465;50.904;4.696;2022-07-23T02:42:31;15.00;99.90
8858;DHT22;4465;50.904;4.696;2022-07-23T02:44:57;15.00;99.90
8858;DHT22;4465;50.904;4.696;2022-07-23T02:47:25;14.90;99.90
8858;DHT22;4465;50.904;4.696;2022-07-23T02:49:52;15.00;99.90
8858;DHT22;4465;50.904;4.696;2022-07-23T02:52:18;14.90;99.90
8858;DHT22;4465;50.904;4.696;2022-07-23T02:54:46;14.90;99.90
8858;DHT22;4465;50.904;4.696;2022-07-23T02:57:19;14.90;99.90
8858;DHT22;4465;50.904;4.696;2022-07-23T02:59:44;14.90;99.90
8858;DHT22;4465;50.904;4.696;2022-07-23T03:02:11;14.80;99.90
8858;DHT22;4465;50.904;4.696;2022-07-23T03:04:37;14.80;99.90
8858;DHT22;4465;50.904;4.696;2022-07-23T03:07:03;14.90;99.90
8858;DHT22;4465;50.904;4.696;2022-07-23T03:09:29;14.80;99.90
8858;DHT22;4465;50.904;4.696;2022-07-23T03:11:55;14.80;99.90
8858;DHT22;4465;50.904;4.696;2022-07-23T03:14:21;14.80;99.90
8858;DHT22;4465;50.904;4.696;2022-07-23T03:16:49;14.70;99.90
8858;DHT22;4465;50.904;4.696;2022-07-23T03:19:16;14.70;99.90
8858;DHT22;4465;50.904;4.696;2022-07-23T03:21:42;14.70;99.90
8858;DHT22;4465;50.904;4.696;2022-07-23T03:24:09;14.70;99.90
8858;DHT22;4465;50.904;4.696;2022-07-23T03:26:35;14.70;99.90
8858;DHT22;4465;50.904;4.696;2022-07-23T03:29:02;14.70;99.90
8858;DHT22;4465;50.904;4.696;2022-07-23T03:31:30;14.60;99.90
8858;DHT22;4465;50.904;4.696;2022-07-23T03:33:56;14.60;99.90
8858;DHT22;4465;50.904;4.696;2022-07-23T03:36:23;14.60;99.90
8858;DHT22;4465;50.904;4.696;2022-07-23T03:38:49;14.60;99.90
8858;DHT22;4465;50.904;4.696;2022-07-23T03:41:20;14.60;99.90
8858;DHT22;4465;50.904;4.696;2022-07-23T03:43:48;14.60;99.90
8858;DHT22;4465;50.904;4.696;2022-07-23T03:46:14;14.60;99.90
8858;DHT22;4465;50.904;4.696;2022-07-23T03:48:40;14.60;99.90
8858;DHT22;4465;50.904;4.696;2022-07-23T03:51:06;14.60;99.90
8858;DHT22;4465;50.904;4.696;2022-07-23T03:53:35;14.60;99.90
8858;DHT22;4465;50.904;4.696;2022-07-23T03:56:04;14.60;99.90
8858;DHT22;4465;50.904;4.696;2022-07-23T03:58:30;14.50;99.90
8858;DHT22;4465;50.904;4.696;2022-07-23T04:01:01;14.50;99.90
8858;DHT22;4465;50.904;4.696;2022-07-23T04:03:29;14.50;99.90
8858;DHT22;4465;50.904;4.696;2022-07-23T04:05:55;14.50;99.90
8858;DHT22;4465;50.904;4.696;2022-07-23T04:08:21;14.50;99.90
8858;DHT22;4465;50.904;4.696;2022-07-23T04:10:51;14.50;99.90
8858;DHT22;4465;50.904;4.696;2022-07-23T04:13:20;14.50;99.90
8858;DHT22;4465;50.904;4.696;2022-07-23T04:15:46;14.50;99.90
8858;DHT22;4465;50.904;4.696;2022-07-23T04:18:14;14.40;99.90
8858;DHT22;4465;50.904;4.696;2022-07-23T04:20:43;14.50;99.90
8858;DHT22;4465;50.904;4.696;2022-07-23T04:23:09;14.40;99.90
8858;DHT22;4465;50.904;4.696;2022-07-23T04:25:36;14.40;99.90
8858;DHT22;4465;50.904;4.696;2022-07-23T04:28:02;14.40;99.90
8858;DHT22;4465;50.904;4.696;2022-07-23T04:30:28;14.40;99.90
8858;DHT22;4465;50.904;4.696;2022-07-23T04:32:54;14.40;99.90
8858;DHT22;4465;50.904;4.696;2022-07-23T04:35:22;14.40;99.90
8858;DHT22;4465;50.904;4.696;2022-07-23T04:37:48;14.40;99.90
8858;DHT22;4465;50.904;4.696;2022-07-23T04:40:14;14.50;99.90
8858;DHT22;4465;50.904;4.696;2022-07-23T04:42:43;14.50;99.90
8858;DHT22;4465;50.904;4.696;2022-07-23T04:45:09;14.50;99.90
8858;DHT22;4465;50.904;4.696;2022-07-23T04:47:37;14.50;99.90
8858;DHT22;4465;50.904;4.696;2022-07-23T04:50:05;14.50;99.90
8858;DHT22;4465;50.904;4.696;2022-07-23T04:52:31;14.50;99.90
8858;DHT22;4465;50.904;4.696;2022-07-23T04:54:59;14.50;99.90
8858;DHT22;4465;50.904;4.696;2022-07-23T04:57:25;14.50;99.90
8858;DHT22;4465;50.904;4.696;2022-07-23T04:59:53;14.60;99.90
8858;DHT22;4465;50.904;4.696;2022-07-23T05:02:19;14.60;99.90
8858;DHT22;4465;50.904;4.696;2022-07-23T05:04:45;14.60;99.90
8858;DHT22;4465;50.904;4.696;2022-07-23T05:07:11;14.70;99.90
8858;DHT22;4465;50.904;4.696;2022-07-23T05:09:37;14.70;99.90
8858;DHT22;4465;50.904;4.696;2022-07-23T05:12:03;14.70;99.90
8858;DHT22;4465;50.904;4.696;2022-07-23T05:14:29;14.80;99.90
8858;DHT22;4465;50.904;4.696;2022-07-23T05:16:56;14.80;99.90
8858;DHT22;4465;50.904;4.696;2022-07-23T05:19:22;14.90;99.90
8858;DHT22;4465;50.904;4.696;2022-07-23T05:21:50;14.90;99.90
8858;DHT22;4465;50.904;4.696;2022-07-23T05:24:19;15.00;99.90
8858;DHT22;4465;50.904;4.696;2022-07-23T05:26:47;15.00;99.90
8858;DHT22;4465;50.904;4.696;2022-07-23T05:29:13;15.00;99.90
8858;DHT22;4465;50.904;4.696;2022-07-23T05:31:39;15.10;99.90
8858;DHT22;4465;50.904;4.696;2022-07-23T05:34:05;15.10;99.90
8858;DHT22;4465;50.904;4.696;2022-07-23T05:36:31;15.20;99.90
8858;DHT22;4465;50.904;4.696;2022-07-23T05:39:00;15.30;99.90
8858;DHT22;4465;50.904;4.696;2022-07-23T05:41:26;15.40;99.90
8858;DHT22;4465;50.904;4.696;2022-07-23T05:43:52;15.40;99.90
8858;DHT22;4465;50.904;4.696;2022-07-23T05:46:18;15.60;99.90
8858;DHT22;4465;50.904;4.696;2022-07-23T05:48:44;15.60;99.90
8858;DHT22;4465;50.904;4.696;2022-07-23T05:51:25;15.60;99.90
8858;DHT22;4465;50.904;4.696;2022-07-23T05:53:51;15.70;99.90
8858;DHT22;4465;50.904;4.696;2022-07-23T05:56:20;15.90;99.90
8858;DHT22;4465;50.904;4.696;2022-07-23T05:58:46;16.00;99.90
8858;DHT22;4465;50.904;4.696;2022-07-23T06:01:12;16.10;99.90
8858;DHT22;4465;50.904;4.696;2022-07-23T06:03:41;16.20;99.90
8858;DHT22;4465;50.904;4.696;2022-07-23T06:06:07;16.30;99.90
8858;DHT22;4465;50.904;4.696;2022-07-23T06:08:33;16.40;99.90
8858;DHT22;4465;50.904;4.696;2022-07-23T06:10:59;16.40;99.90
8858;DHT22;4465;50.904;4.696;2022-07-23T06:13:25;16.50;99.90
8858;DHT22;4465;50.904;4.696;2022-07-23T06:15:51;16.60;99.90
8858;DHT22;4465;50.904;4.696;2022-07-23T06:18:17;16.70;99.90
8858;DHT22;4465;50.904;4.696;2022-07-23T06:20:43;16.80;99.90
8858;DHT22;4465;50.904;4.696;2022-07-23T06:23:09;16.80;99.90
8858;DHT22;4465;50.904;4.696;2022-07-23T06:25:35;16.90;99.90
8858;DHT22;4465;50.904;4.696;2022-07-23T06:28:04;17.00;99.90
8858;DHT22;4465;50.904;4.696;2022-07-23T06:30:30;17.10;99.90
8858;DHT22;4465;50.904;4.696;2022-07-23T06:32:58;17.20;99.90
8858;DHT22;4465;50.904;4.696;2022-07-23T06:35:24;17.30;99.90
8858;DHT22;4465;50.904;4.696;2022-07-23T06:37:56;17.30;99.90
8858;DHT22;4465;50.904;4.696;2022-07-23T06:40:22;17.40;99.90
8858;DHT22;4465;50.904;4.696;2022-07-23T06:42:48;17.50;99.90
8858;DHT22;4465;50.904;4.696;2022-07-23T06:45:14;17.60;99.90
8858;DHT22;4465;50.904;4.696;2022-07-23T06:47:40;17.60;99.90
8858;DHT22;4465;50.904;4.696;2022-07-23T06:50:07;17.70;99.90
8858;DHT22;4465;50.904;4.696;2022-07-23T06:52:33;17.80;99.90
8858;DHT22;4465;50.904;4.696;2022-07-23T06:54:59;17.90;99.90
8858;DHT22;4465;50.904;4.696;2022-07-23T06:57:26;18.00;99.90
8858;DHT22;4465;50.904;4.696;2022-07-23T06:59:52;18.10;99.90
8858;DHT22;4465;50.904;4.696;2022-07-23T07:02:21;18.20;99.90
8858;DHT22;4465;50.904;4.696;2022-07-23T07:04:47;18.30;99.90
8858;DHT22;4465;50.904;4.696;2022-07-23T07:07:13;18.40;99.90
8858;DHT22;4465;50.904;4.696;2022-07-23T07:09:39;18.40;99.90
8858;DHT22;4465;50.904;4.696;2022-07-23T07:12:06;18.50;99.90
8858;DHT22;4465;50.904;4.696;2022-07-23T07:14:32;18.60;99.90
8858;DHT22;4465;50.904;4.696;2022-07-23T07:16:59;18.60;99.90
8858;DHT22;4465;50.904;4.696;2022-07-23T07:19:25;18.60;99.90
8858;DHT22;4465;50.904;4.696;2022-07-23T07:21:51;18.70;99.90
8858;DHT22;4465;50.904;4.696;2022-07-23T07:24:17;18.80;99.90
8858;DHT22;4465;50.904;4.696;2022-07-23T07:26:44;19.00;99.90
8858;DHT22;4465;50.904;4.696;2022-07-23T07:29:10;19.10;99.90
8858;DHT22;4465;50.904;4.696;2022-07-23T07:31:36;19.20;99.90
8858;DHT22;4465;50.904;4.696;2022-07-23T07:34:03;19.30;99.90
8858;DHT22;4465;50.904;4.696;2022-07-23T07:36:29;19.50;99.90
8858;DHT22;4465;50.904;4.696;2022-07-23T07:38:57;19.60;99.90
8858;DHT22;4465;50.904;4.696;2022-07-23T07:41:24;19.70;99.90
8858;DHT22;4465;50.904;4.696;2022-07-23T07:43:51;19.80;99.90
8858;DHT22;4465;50.904;4.696;2022-07-23T07:46:18;19.90;99.90
8858;DHT22;4465;50.904;4.696;2022-07-23T07:48:46;20.00;99.90
8858;DHT22;4465;50.904;4.696;2022-07-23T07:51:12;20.10;99.90
8858;DHT22;4465;50.904;4.696;2022-07-23T07:53:39;20.30;99.90
8858;DHT22;4465;50.904;4.696;2022-07-23T07:56:05;20.40;99.90
8858;DHT22;4465;50.904;4.696;2022-07-23T07:58:31;20.40;99.90
8858;DHT22;4465;50.904;4.696;2022-07-23T08:00:57;20.50;99.90
8858;DHT22;4465;50.904;4.696;2022-07-23T08:03:23;20.60;99.90
8858;DHT22;4465;50.904;4.696;2022-07-23T08:05:49;20.70;99.90
8858;DHT22;4465;50.904;4.696;2022-07-23T08:08:15;20.80;99.90
8858;DHT22;4465;50.904;4.696;2022-07-23T08:10:41;20.80;99.90
8858;DHT22;4465;50.904;4.696;2022-07-23T08:13:08;21.00;99.90
8858;DHT22;4465;50.904;4.696;2022-07-23T08:15:37;21.10;99.90
8858;DHT22;4465;50.904;4.696;2022-07-23T08:18:04;21.20;99.90
8858;DHT22;4465;50.904;4.696;2022-07-23T08:20:30;21.40;99.90
8858;DHT22;4465;50.904;4.696;2022-07-23T08:23:03;21.50;99.90
8858;DHT22;4465;50.904;4.696;2022-07-23T08:25:32;21.60;99.90
8858;DHT22;4465;50.904;4.696;2022-07-23T08:28:05;21.80;99.90
8858;DHT22;4465;50.904;4.696;2022-07-23T08:30:32;21.90;99.90
8858;DHT22;4465;50.904;4.696;2022-07-23T08:33:00;22.00;99.90
8858;DHT22;4465;50.904;4.696;2022-07-23T08:35:31;22.10;99.90
8858;DHT22;4465;50.904;4.696;2022-07-23T08:37:59;22.20;99.90
8858;DHT22;4465;50.904;4.696;2022-07-23T08:40:27;22.30;99.90
8858;DHT22;4465;50.904;4.696;2022-07-23T08:42:53;22.40;99.90
8858;DHT22;4465;50.904;4.696;2022-07-23T08:45:23;22.50;99.90
8858;DHT22;4465;50.904;4.696;2022-07-23T08:47:58;22.60;99.90
8858;DHT22;4465;50.904;4.696;2022-07-23T08:50:24;22.70;99.90
8858;DHT22;4465;50.904;4.696;2022-07-23T08:52:52;22.70;99.90
8858;DHT22;4465;50.904;4.696;2022-07-23T08:55:21;22.70;99.90
8858;DHT22;4465;50.904;4.696;2022-07-23T08:57:50;22.70;99.90
8858;DHT22;4465;50.904;4.696;2022-07-23T09:00:17;22.70;99.90
8858;DHT22;4465;50.904;4.696;2022-07-23T09:02:46;22.70;99.90
8858;DHT22;4465;50.904;4.696;2022-07-23T09:05:15;22.70;99.90
8858;DHT22;4465;50.904;4.696;2022-07-23T09:08:14;22.60;99.90
8858;DHT22;4465;50.904;4.696;2022-07-23T09:10:53;22.60;99.90
8858;DHT22;4465;50.904;4.696;2022-07-23T09:16:09;22.60;99.90
8858;DHT22;4465;50.904;4.696;2022-07-23T09:18:47;22.60;99.90
8858;DHT22;4465;50.904;4.696;2022-07-23T09:21:28;22.60;99.90
8858;DHT22;4465;50.904;4.696;2022-07-23T09:24:03;22.40;99.90
8858;DHT22;4465;50.904;4.696;2022-07-23T09:26:38;22.40;99.90
8858;DHT22;4465;50.904;4.696;2022-07-23T09:29:08;22.40;99.90
8858;DHT22;4465;50.904;4.696;2022-07-23T09:31:44;22.40;99.90
8858;DHT22;4465;50.904;4.696;2022-07-23T09:34:22;22.50;99.90
8858;DHT22;4465;50.904;4.696;2022-07-23T09:36:51;22.50;99.90
8858;DHT22;4465;50.904;4.696;2022-07-23T09:39:33;22.50;99.90
8858;DHT22;4465;50.904;4.696;2022-07-23T09:42:25;22.60;99.90
8858;DHT22;4465;50.904;4.696;2022-07-23T09:44:54;22.60;99.90
8858;DHT22;4465;50.904;4.696;2022-07-23T09:47:25;22.50;99.90
8858;DHT22;4465;50.904;4.696;2022-07-23T09:50:01;22.50;99.90
8858;DHT22;4465;50.904;4.696;2022-07-23T09:52:32;22.30;99.90
8858;DHT22;4465;50.904;4.696;2022-07-23T09:54:59;22.30;99.90
8858;DHT22;4465;50.904;4.696;2022-07-23T09:57:26;22.30;99.90
8858;DHT22;4465;50.904;4.696;2022-07-23T10:00:00;22.30;99.90
8858;DHT22;4465;50.904;4.696;2022-07-23T10:02:28;22.30;99.90
8858;DHT22;4465;50.904;4.696;2022-07-23T10:04:56;22.40;99.90
8858;DHT22;4465;50.904;4.696;2022-07-23T10:07:26;22.40;99.90
8858;DHT22;4465;50.904;4.696;2022-07-23T10:09:53;22.40;99.90
8858;DHT22;4465;50.904;4.696;2022-07-23T10:12:20;22.40;99.90
8858;DHT22;4465;50.904;4.696;2022-07-23T10:14:52;22.40;99.90
8858;DHT22;4465;50.904;4.696;2022-07-23T10:17:18;22.50;99.90
8858;DHT22;4465;50.904;4.696;2022-07-23T10:19:44;22.50;99.90
8858;DHT22;4465;50.904;4.696;2022-07-23T10:35:59;22.70;99.90
8858;DHT22;4465;50.904;4.696;2022-07-23T10:38:37;22.70;99.90
8858;DHT22;4465;50.904;4.696;2022-07-23T10:41:09;22.80;99.90
8858;DHT22;4465;50.904;4.696;2022-07-23T10:43:35;22.80;99.90
8858;DHT22;4465;50.904;4.696;2022-07-23T10:46:23;22.90;99.90
8858;DHT22;4465;50.904;4.696;2022-07-23T10:49:32;23.00;99.90
8858;DHT22;4465;50.904;4.696;2022-07-23T10:52:17;23.20;99.90
8858;DHT22;4465;50.904;4.696;2022-07-23T10:54:56;23.30;99.90
8858;DHT22;4465;50.904;4.696;2022-07-23T10:57:49;23.40;99.90
8858;DHT22;4465;50.904;4.696;2022-07-23T11:00:20;23.50;99.90
8858;DHT22;4465;50.904;4.696;2022-07-23T11:02:48;23.60;99.90
8858;DHT22;4465;50.904;4.696;2022-07-23T11:05:20;23.80;99.90
8858;DHT22;4465;50.904;4.696;2022-07-23T11:10:39;24.10;99.90
8858;DHT22;4465;50.904;4.696;2022-07-23T11:16:08;24.70;99.90
8858;DHT22;4465;50.904;4.696;2022-07-23T11:24:12;25.80;99.90
8858;DHT22;4465;50.904;4.696;2022-07-23T11:26:50;26.20;99.90
8858;DHT22;4465;50.904;4.696;2022-07-23T11:32:20;27.10;99.90
8858;DHT22;4465;50.904;4.696;2022-07-23T11:34:49;27.70;99.90
8858;DHT22;4465;50.904;4.696;2022-07-23T11:39:58;28.80;99.90
8858;DHT22;4465;50.904;4.696;2022-07-23T11:42:24;29.30;99.90
8858;DHT22;4465;50.904;4.696;2022-07-23T11:44:52;29.60;99.90
8858;DHT22;4465;50.904;4.696;2022-07-23T11:47:26;29.90;99.90
8858;DHT22;4465;50.904;4.696;2022-07-23T11:52:19;30.70;99.90
8858;DHT22;4465;50.904;4.696;2022-07-23T11:54:55;30.90;99.90
8858;DHT22;4465;50.904;4.696;2022-07-23T11:57:32;31.10;99.90
8858;DHT22;4465;50.904;4.696;2022-07-23T12:00:20;31.50;99.90
8858;DHT22;4465;50.904;4.696;2022-07-23T12:02:49;31.80;99.90
8858;DHT22;4465;50.904;4.696;2022-07-23T12:05:17;32.00;99.90
8858;DHT22;4465;50.904;4.696;2022-07-23T12:07:46;32.30;99.90
8858;DHT22;4465;50.904;4.696;2022-07-23T12:10:36;32.60;99.90
8858;DHT22;4465;50.904;4.696;2022-07-23T12:13:08;32.60;99.10
8858;DHT22;4465;50.904;4.696;2022-07-23T12:15:42;32.40;99.20
8858;DHT22;4465;50.904;4.696;2022-07-23T12:18:11;32.40;98.50
8858;DHT22;4465;50.904;4.696;2022-07-23T12:20:43;32.40;99.30
8858;DHT22;4465;50.904;4.696;2022-07-23T12:23:12;32.60;99.10
8858;DHT22;4465;50.904;4.696;2022-07-23T12:25:42;32.80;98.70
8858;DHT22;4465;50.904;4.696;2022-07-23T12:30:42;32.90;96.80
8858;DHT22;4465;50.904;4.696;2022-07-23T12:33:11;32.60;96.30
8858;DHT22;4465;50.904;4.696;2022-07-23T12:35:42;32.40;96.30
8858;DHT22;4465;50.904;4.696;2022-07-23T12:38:20;32.10;96.60
8858;DHT22;4465;50.904;4.696;2022-07-23T12:43:25;31.90;96.70
8858;DHT22;4465;50.904;4.696;2022-07-23T12:46:01;31.90;96.20
8858;DHT22;4465;50.904;4.696;2022-07-23T12:48:29;31.70;94.90
8858;DHT22;4465;50.904;4.696;2022-07-23T12:51:14;31.60;95.70
8858;DHT22;4465;50.904;4.696;2022-07-23T12:53:43;31.60;95.70
8858;DHT22;4465;50.904;4.696;2022-07-23T12:56:11;31.60;96.20
8858;DHT22;4465;50.904;4.696;2022-07-23T12:58:49;31.80;95.90
8858;DHT22;4465;50.904;4.696;2022-07-23T13:04:09;31.60;93.90
8858;DHT22;4465;50.904;4.696;2022-07-23T13:06:44;31.30;94.00
8858;DHT22;4465;50.904;4.696;2022-07-23T13:09:13;31.10;94.70
8858;DHT22;4465;50.904;4.696;2022-07-23T13:11:40;31.00;96.70
8858;DHT22;4465;50.904;4.696;2022-07-23T13:14:06;31.10;95.10
8858;DHT22;4465;50.904;4.696;2022-07-23T13:16:33;31.10;95.20
8858;DHT22;4465;50.904;4.696;2022-07-23T13:19:00;31.20;94.50
8858;DHT22;4465;50.904;4.696;2022-07-23T13:21:27;31.30;95.00
8858;DHT22;4465;50.904;4.696;2022-07-23T13:23:59;31.40;95.80
8858;DHT22;4465;50.904;4.696;2022-07-23T13:26:26;31.50;95.00
8858;DHT22;4465;50.904;4.696;2022-07-23T13:28:52;31.60;93.70
8858;DHT22;4465;50.904;4.696;2022-07-23T13:31:21;31.60;94.40
8858;DHT22;4465;50.904;4.696;2022-07-23T13:33:50;31.60;93.60
8858;DHT22;4465;50.904;4.696;2022-07-23T13:36:16;31.40;93.90
8858;DHT22;4465;50.904;4.696;2022-07-23T13:38:42;31.20;94.50
8858;DHT22;4465;50.904;4.696;2022-07-23T13:41:08;30.80;93.10
8858;DHT22;4465;50.904;4.696;2022-07-23T13:43:34;30.40;93.90
8858;DHT22;4465;50.904;4.696;2022-07-23T13:46:03;30.10;92.70
8858;DHT22;4465;50.904;4.696;2022-07-23T13:48:32;29.80;93.10
8858;DHT22;4465;50.904;4.696;2022-07-23T13:50:58;29.50;92.90
8858;DHT22;4465;50.904;4.696;2022-07-23T13:53:27;29.30;93.30
8858;DHT22;4465;50.904;4.696;2022-07-23T13:55:53;29.10;94.50
8858;DHT22;4465;50.904;4.696;2022-07-23T13:58:21;29.00;93.90
8858;DHT22;4465;50.904;4.696;2022-07-23T14:00:52;28.80;94.40
8858;DHT22;4465;50.904;4.696;2022-07-23T14:03:20;28.70;93.90
8858;DHT22;4465;50.904;4.696;2022-07-23T14:05:49;28.60;95.20
8858;DHT22;4465;50.904;4.696;2022-07-23T14:08:15;28.50;95.10
8858;DHT22;4465;50.904;4.696;2022-07-23T14:10:43;28.40;94.50
8858;DHT22;4465;50.904;4.696;2022-07-23T14:13:09;28.30;95.60
8858;DHT22;4465;50.904;4.696;2022-07-23T14:15:35;28.20;95.30
8858;DHT22;4465;50.904;4.696;2022-07-23T14:18:02;28.00;95.10
8858;DHT22;4465;50.904;4.696;2022-07-23T14:20:28;27.90;95.00
8858;DHT22;4465;50.904;4.696;2022-07-23T14:22:54;27.70;94.90
8858;DHT22;4465;50.904;4.696;2022-07-23T14:25:23;27.60;94.80
8858;DHT22;4465;50.904;4.696;2022-07-23T14:27:49;27.50;95.60
8858;DHT22;4465;50.904;4.696;2022-07-23T14:30:15;27.40;96.10
8858;DHT22;4465;50.904;4.696;2022-07-23T14:32:44;27.40;95.50
8858;DHT22;4465;50.904;4.696;2022-07-23T14:35:11;27.40;96.10
8858;DHT22;4465;50.904;4.696;2022-07-23T14:37:38;27.40;95.20
8858;DHT22;4465;50.904;4.696;2022-07-23T14:40:05;27.40;96.10
8858;DHT22;4465;50.904;4.696;2022-07-23T14:42:31;27.40;95.70
8858;DHT22;4465;50.904;4.696;2022-07-23T14:44:57;27.30;95.20
8858;DHT22;4465;50.904;4.696;2022-07-23T14:47:24;27.30;95.90
8858;DHT22;4465;50.904;4.696;2022-07-23T14:49:50;27.20;96.60
8858;DHT22;4465;50.904;4.696;2022-07-23T14:52:16;27.30;96.20
8858;DHT22;4465;50.904;4.696;2022-07-23T14:54:42;27.20;96.10
8858;DHT22;4465;50.904;4.696;2022-07-23T14:57:10;27.20;96.40
8858;DHT22;4465;50.904;4.696;2022-07-23T14:59:37;27.10;95.80
8858;DHT22;4465;50.904;4.696;2022-07-23T15:02:04;27.10;96.30
8858;DHT22;4465;50.904;4.696;2022-07-23T15:04:32;27.10;96.50
8858;DHT22;4465;50.904;4.696;2022-07-23T15:06:58;27.00;96.40
8858;DHT22;4465;50.904;4.696;2022-07-23T15:09:24;27.00;96.60
8858;DHT22;4465;50.904;4.696;2022-07-23T15:11:51;27.00;96.80
8858;DHT22;4465;50.904;4.696;2022-07-23T15:14:19;27.00;96.30
8858;DHT22;4465;50.904;4.696;2022-07-23T15:16:47;26.90;96.30
8858;DHT22;4465;50.904;4.696;2022-07-23T15:19:13;26.90;96.60
8858;DHT22;4465;50.904;4.696;2022-07-23T15:21:40;26.80;96.10
8858;DHT22;4465;50.904;4.696;2022-07-23T15:24:06;26.70;96.00
8858;DHT22;4465;50.904;4.696;2022-07-23T15:26:32;26.70;96.50
8858;DHT22;4465;50.904;4.696;2022-07-23T15:28:58;26.70;96.80
8858;DHT22;4465;50.904;4.696;2022-07-23T15:31:25;26.70;96.60
8858;DHT22;4465;50.904;4.696;2022-07-23T15:33:51;26.70;96.70
8858;DHT22;4465;50.904;4.696;2022-07-23T15:36:18;26.70;96.60
8858;DHT22;4465;50.904;4.696;2022-07-23T15:38:45;26.70;96.80
8858;DHT22;4465;50.904;4.696;2022-07-23T15:41:12;26.70;97.10
8858;DHT22;4465;50.904;4.696;2022-07-23T15:43:38;26.70;96.30
8858;DHT22;4465;50.904;4.696;2022-07-23T15:46:04;26.60;96.20
8858;DHT22;4465;50.904;4.696;2022-07-23T15:48:31;26.60;96.50
8858;DHT22;4465;50.904;4.696;2022-07-23T15:50:57;26.60;95.90
8858;DHT22;4465;50.904;4.696;2022-07-23T15:53:24;26.50;96.00
8858;DHT22;4465;50.904;4.696;2022-07-23T15:55:50;26.50;96.30
8858;DHT22;4465;50.904;4.696;2022-07-23T15:58:17;26.50;96.50
8858;DHT22;4465;50.904;4.696;2022-07-23T16:00:44;26.40;97.00
8858;DHT22;4465;50.904;4.696;2022-07-23T16:03:10;26.40;97.10
8858;DHT22;4465;50.904;4.696;2022-07-23T16:05:38;26.50;96.80
8858;DHT22;4465;50.904;4.696;2022-07-23T16:08:06;26.50;96.90
8858;DHT22;4465;50.904;4.696;2022-07-23T16:10:32;26.50;97.10
8858;DHT22;4465;50.904;4.696;2022-07-23T16:12:58;26.50;97.10
8858;DHT22;4465;50.904;4.696;2022-07-23T16:15:25;26.50;96.90
8858;DHT22;4465;50.904;4.696;2022-07-23T16:17:52;26.50;96.80
8858;DHT22;4465;50.904;4.696;2022-07-23T16:20:18;26.40;96.60
8858;DHT22;4465;50.904;4.696;2022-07-23T16:22:47;26.40;96.40
8858;DHT22;4465;50.904;4.696;2022-07-23T16:25:15;26.40;96.70
8858;DHT22;4465;50.904;4.696;2022-07-23T16:27:43;26.40;97.10
8858;DHT22;4465;50.904;4.696;2022-07-23T16:30:10;26.40;96.60
8858;DHT22;4465;50.904;4.696;2022-07-23T16:32:39;26.40;97.00
8858;DHT22;4465;50.904;4.696;2022-07-23T16:35:08;26.30;97.10
8858;DHT22;4465;50.904;4.696;2022-07-23T16:37:34;26.40;97.50
8858;DHT22;4465;50.904;4.696;2022-07-23T16:40:03;26.40;96.90
8858;DHT22;4465;50.904;4.696;2022-07-23T16:42:30;26.40;97.10
8858;DHT22;4465;50.904;4.696;2022-07-23T16:44:56;26.30;96.70
8858;DHT22;4465;50.904;4.696;2022-07-23T16:47:25;26.30;96.60
8858;DHT22;4465;50.904;4.696;2022-07-23T16:49:51;26.30;96.60
8858;DHT22;4465;50.904;4.696;2022-07-23T16:52:17;26.30;96.90